createdAt,value
2022-12-29T00:00:06.109Z,986.31
2022-12-29T00:01:06.204Z,986.29
2022-12-29T00:02:06.089Z,986.28
2022-12-29T00:03:06.627Z,986.31
2022-12-29T00:04:09.958Z,986.30
2022-12-29T00:05:06.779Z,986.34
2022-12-29T00:06:06.804Z,986.33
2022-12-29T00:07:06.027Z,986.32
2022-12-29T00:08:06.028Z,986.32
2022-12-29T00:09:06.010Z,986.31
2022-12-29T00:10:06.529Z,986.32
2022-12-29T00:11:05.995Z,986.31
2022-12-29T00:12:05.985Z,986.28
2022-12-29T00:13:05.973Z,986.30
2022-12-29T00:14:05.986Z,986.28
2022-12-29T00:15:06.379Z,986.31
2022-12-29T00:16:05.976Z,986.31
2022-12-29T00:17:05.929Z,986.30
2022-12-29T00:18:05.931Z,986.33
2022-12-29T00:19:05.925Z,986.36
2022-12-29T00:20:06.614Z,986.34
2022-12-29T00:21:05.889Z,986.33
2022-12-29T00:22:06.232Z,986.32
2022-12-29T00:23:06.244Z,986.33
2022-12-29T00:24:05.855Z,986.34
2022-12-29T00:25:05.848Z,986.30
2022-12-29T00:26:06.643Z,986.29
2022-12-29T00:27:05.830Z,986.33
2022-12-29T00:28:07.437Z,986.29
2022-12-29T00:29:05.811Z,986.28
2022-12-29T00:30:05.798Z,986.31
2022-12-29T00:31:05.852Z,986.31
2022-12-29T00:32:06.203Z,986.27
2022-12-29T00:33:05.778Z,986.31
2022-12-29T00:34:05.759Z,986.29
2022-12-29T00:35:05.749Z,986.32
2022-12-29T00:36:05.742Z,986.30
2022-12-29T00:37:05.726Z,986.32
2022-12-29T00:38:05.720Z,986.30
2022-12-29T00:39:05.704Z,986.25
2022-12-29T00:40:06.108Z,986.26
2022-12-29T00:41:06.076Z,986.26
2022-12-29T00:42:05.674Z,986.26
2022-12-29T00:43:05.665Z,986.26
2022-12-29T00:44:06.069Z,986.23
2022-12-29T00:45:05.641Z,986.24
2022-12-29T00:46:05.724Z,986.22
2022-12-29T00:47:05.767Z,986.24
2022-12-29T00:48:05.613Z,986.24
2022-12-29T00:49:05.601Z,986.21
2022-12-29T00:50:05.591Z,986.18
2022-12-29T00:51:05.984Z,986.15
2022-12-29T00:52:05.576Z,986.11
2022-12-29T00:53:05.581Z,986.12
2022-12-29T00:54:05.559Z,986.08
2022-12-29T00:55:05.542Z,986.05
2022-12-29T00:56:05.526Z,986.08
2022-12-29T00:57:05.533Z,986.09
2022-12-29T00:58:05.512Z,986.05
2022-12-29T00:59:05.503Z,986.09
2022-12-29T01:00:05.509Z,986.05
2022-12-29T01:01:05.571Z,985.99
2022-12-29T01:02:06.106Z,985.95
2022-12-29T01:03:05.620Z,985.95
2022-12-29T01:04:05.490Z,985.92
2022-12-29T01:05:05.443Z,985.96
2022-12-29T01:06:05.435Z,985.96
2022-12-29T01:07:05.423Z,985.95
2022-12-29T01:08:05.419Z,985.94
2022-12-29T01:09:05.395Z,985.89
2022-12-29T01:10:05.773Z,985.84
2022-12-29T01:11:05.377Z,985.82
2022-12-29T01:12:05.367Z,985.84
2022-12-29T01:13:05.358Z,985.81
2022-12-29T01:14:05.343Z,985.89
2022-12-29T01:15:05.780Z,985.87
2022-12-29T01:16:05.417Z,985.92
2022-12-29T01:17:05.320Z,985.81
2022-12-29T01:18:05.730Z,985.76
2022-12-29T01:19:05.310Z,985.78
2022-12-29T01:20:05.288Z,985.80
2022-12-29T01:21:05.276Z,985.86
2022-12-29T01:22:05.267Z,985.77
2022-12-29T01:23:05.260Z,985.80
2022-12-29T01:24:05.857Z,985.75
2022-12-29T01:25:05.657Z,985.72
2022-12-29T01:26:05.232Z,985.70
2022-12-29T01:27:05.285Z,985.65
2022-12-29T01:28:05.219Z,985.64
2022-12-29T01:29:05.199Z,985.59
2022-12-29T01:30:05.189Z,985.60
2022-12-29T01:31:05.210Z,985.54
2022-12-29T01:32:05.197Z,985.55
2022-12-29T01:33:05.153Z,985.50
2022-12-29T01:34:05.150Z,985.42
2022-12-29T01:35:05.862Z,985.33
2022-12-29T01:36:05.124Z,985.34
2022-12-29T01:37:05.887Z,985.30
2022-12-29T01:38:05.550Z,985.34
2022-12-29T01:39:05.108Z,985.33
2022-12-29T01:40:05.082Z,985.29
2022-12-29T01:41:05.077Z,985.33
2022-12-29T01:42:05.400Z,985.34
2022-12-29T01:43:05.058Z,985.35
2022-12-29T01:44:05.042Z,985.31
2022-12-29T01:45:05.467Z,985.29
2022-12-29T01:46:05.081Z,985.29
2022-12-29T01:47:05.025Z,985.30
2022-12-29T01:48:04.997Z,985.29
2022-12-29T01:49:04.994Z,985.27
2022-12-29T01:50:04.979Z,985.35
2022-12-29T01:51:04.981Z,985.37
2022-12-29T01:52:04.969Z,985.40
2022-12-29T01:53:04.951Z,985.45
2022-12-29T01:54:04.942Z,985.44
2022-12-29T01:55:04.951Z,985.42
2022-12-29T01:56:05.685Z,985.44
2022-12-29T01:57:04.912Z,985.41
2022-12-29T01:58:05.252Z,985.41
2022-12-29T01:59:04.891Z,985.44
2022-12-29T02:00:04.897Z,985.44
2022-12-29T02:01:04.936Z,985.44
2022-12-29T02:02:04.890Z,985.46
2022-12-29T02:03:05.353Z,985.44
2022-12-29T02:04:04.852Z,985.35
2022-12-29T02:05:05.142Z,985.42
2022-12-29T02:06:04.828Z,985.38
2022-12-29T02:07:04.816Z,985.42
2022-12-29T02:08:05.233Z,985.40
2022-12-29T02:09:04.789Z,985.41
2022-12-29T02:10:04.776Z,985.38
2022-12-29T02:11:04.773Z,985.35
2022-12-29T02:12:04.772Z,985.26
2022-12-29T02:13:05.196Z,985.30
2022-12-29T02:14:04.751Z,985.34
2022-12-29T02:15:04.733Z,985.34
2022-12-29T02:16:04.821Z,985.30
2022-12-29T02:17:05.634Z,985.29
2022-12-29T02:18:04.702Z,985.24
2022-12-29T02:19:04.700Z,985.26
2022-12-29T02:20:04.678Z,985.30
2022-12-29T02:21:04.673Z,985.27
2022-12-29T02:22:05.465Z,985.24
2022-12-29T02:23:04.665Z,985.21
2022-12-29T02:24:04.636Z,985.16
2022-12-29T02:25:04.708Z,985.18
2022-12-29T02:26:04.658Z,985.14
2022-12-29T02:27:05.572Z,985.15
2022-12-29T02:28:04.650Z,985.18
2022-12-29T02:29:04.614Z,985.17
2022-12-29T02:30:04.593Z,985.18
2022-12-29T02:31:04.578Z,985.20
2022-12-29T02:32:04.622Z,985.21
2022-12-29T02:33:04.555Z,985.19
2022-12-29T02:34:04.542Z,985.07
2022-12-29T02:35:05.269Z,985.15
2022-12-29T02:36:04.516Z,985.13
2022-12-29T02:37:04.517Z,985.14
2022-12-29T02:38:04.499Z,985.18
2022-12-29T02:39:04.494Z,985.15
2022-12-29T02:40:04.479Z,985.11
2022-12-29T02:41:04.480Z,985.06
2022-12-29T02:42:04.484Z,985.11
2022-12-29T02:43:04.462Z,985.13
2022-12-29T02:44:04.455Z,985.08
2022-12-29T02:45:04.444Z,985.05
2022-12-29T02:46:05.016Z,984.97
2022-12-29T02:47:04.427Z,984.94
2022-12-29T02:48:04.398Z,984.97
2022-12-29T02:49:04.395Z,984.95
2022-12-29T02:50:04.384Z,984.83
2022-12-29T02:51:05.091Z,984.99
2022-12-29T02:52:04.353Z,984.97
2022-12-29T02:53:04.359Z,985.01
2022-12-29T02:54:04.334Z,984.93
2022-12-29T02:55:04.339Z,984.97
2022-12-29T02:56:04.710Z,984.97
2022-12-29T02:57:04.321Z,985.02
2022-12-29T02:58:04.316Z,984.95
2022-12-29T02:59:04.294Z,984.99
2022-12-29T03:00:04.290Z,985.01
2022-12-29T03:01:04.320Z,984.94
2022-12-29T03:02:04.480Z,984.93
2022-12-29T03:03:04.459Z,984.98
2022-12-29T03:04:04.250Z,984.96
2022-12-29T03:05:04.238Z,984.95
2022-12-29T03:06:04.222Z,984.85
2022-12-29T03:07:04.219Z,984.83
2022-12-29T03:08:04.207Z,984.79
2022-12-29T03:09:04.200Z,984.71
2022-12-29T03:10:04.181Z,984.65
2022-12-29T03:11:04.175Z,984.67
2022-12-29T03:12:04.595Z,984.63
2022-12-29T03:13:04.165Z,984.53
2022-12-29T03:14:04.151Z,984.52
2022-12-29T03:15:04.579Z,984.50
2022-12-29T03:16:04.140Z,984.49
2022-12-29T03:17:04.200Z,984.56
2022-12-29T03:18:04.113Z,984.57
2022-12-29T03:19:04.094Z,984.62
2022-12-29T03:20:04.081Z,984.65
2022-12-29T03:21:04.106Z,984.63
2022-12-29T03:22:04.078Z,984.63
2022-12-29T03:23:04.495Z,984.63
2022-12-29T03:24:04.047Z,984.67
2022-12-29T03:25:04.436Z,984.58
2022-12-29T03:26:04.030Z,984.66
2022-12-29T03:27:04.028Z,984.55
2022-12-29T03:28:04.022Z,984.59
2022-12-29T03:29:03.995Z,984.56
2022-12-29T03:30:04.495Z,984.57
2022-12-29T03:31:03.995Z,984.53
2022-12-29T03:32:03.960Z,984.51
2022-12-29T03:33:03.969Z,984.56
2022-12-29T03:34:03.949Z,984.51
2022-12-29T03:35:03.979Z,984.53
2022-12-29T03:36:03.927Z,984.63
2022-12-29T03:37:03.927Z,984.59
2022-12-29T03:38:03.900Z,984.67
2022-12-29T03:39:04.314Z,984.73
2022-12-29T03:40:03.889Z,984.74
2022-12-29T03:41:03.901Z,984.67
2022-12-29T03:42:03.869Z,984.72
2022-12-29T03:43:03.882Z,984.67
2022-12-29T03:44:04.412Z,984.73
2022-12-29T03:45:03.845Z,984.75
2022-12-29T03:46:03.875Z,984.73
2022-12-29T03:47:03.828Z,984.70
2022-12-29T03:48:03.826Z,984.73
2022-12-29T03:49:04.544Z,984.67
2022-12-29T03:50:03.788Z,984.71
2022-12-29T03:51:03.787Z,984.69
2022-12-29T03:52:03.775Z,984.68
2022-12-29T03:53:03.767Z,984.63
2022-12-29T03:54:04.507Z,984.69
2022-12-29T03:55:03.751Z,984.64
2022-12-29T03:56:04.098Z,984.69
2022-12-29T03:57:03.729Z,984.76
2022-12-29T03:58:03.720Z,984.82
2022-12-29T03:59:03.711Z,984.76
2022-12-29T04:00:03.709Z,984.77
2022-12-29T04:01:04.116Z,984.77
2022-12-29T04:02:03.800Z,984.73
2022-12-29T04:03:03.815Z,984.71
2022-12-29T04:04:03.663Z,984.71
2022-12-29T04:05:03.651Z,984.69
2022-12-29T04:06:03.641Z,984.70
2022-12-29T04:07:03.641Z,984.73
2022-12-29T04:08:03.638Z,984.69
2022-12-29T04:09:03.619Z,984.68
2022-12-29T04:10:03.604Z,984.65
2022-12-29T04:11:03.612Z,984.57
2022-12-29T04:12:03.594Z,984.56
2022-12-29T04:13:03.582Z,984.61
2022-12-29T04:14:03.576Z,984.55
2022-12-29T04:15:03.569Z,984.54
2022-12-29T04:16:03.832Z,984.54
2022-12-29T04:17:03.538Z,984.55
2022-12-29T04:18:03.525Z,984.48
2022-12-29T04:19:03.520Z,984.49
2022-12-29T04:20:04.292Z,984.45
2022-12-29T04:21:03.648Z,984.47
2022-12-29T04:22:03.877Z,984.50
2022-12-29T04:23:03.494Z,984.44
2022-12-29T04:24:03.477Z,984.45
2022-12-29T04:25:03.469Z,984.49
2022-12-29T04:26:03.458Z,984.46
2022-12-29T04:27:04.245Z,984.47
2022-12-29T04:28:03.447Z,984.46
2022-12-29T04:29:03.943Z,984.44
2022-12-29T04:30:03.420Z,984.39
2022-12-29T04:31:03.463Z,984.37
2022-12-29T04:32:03.399Z,984.36
2022-12-29T04:33:03.387Z,984.36
2022-12-29T04:34:03.785Z,984.39
2022-12-29T04:35:03.371Z,984.38
2022-12-29T04:36:03.349Z,984.40
2022-12-29T04:37:03.361Z,984.42
2022-12-29T04:38:03.346Z,984.42
2022-12-29T04:39:03.338Z,984.41
2022-12-29T04:40:03.319Z,984.37
2022-12-29T04:41:03.688Z,984.37
2022-12-29T04:42:03.302Z,984.40
2022-12-29T04:43:03.292Z,984.44
2022-12-29T04:44:03.283Z,984.46
2022-12-29T04:45:03.599Z,984.45
2022-12-29T04:46:03.371Z,984.42
2022-12-29T04:47:03.252Z,984.38
2022-12-29T04:48:03.253Z,984.38
2022-12-29T04:49:03.252Z,984.38
2022-12-29T04:50:03.242Z,984.38
2022-12-29T04:51:03.219Z,984.40
2022-12-29T04:52:03.923Z,984.44
2022-12-29T04:53:03.201Z,984.43
2022-12-29T04:54:03.196Z,984.46
2022-12-29T04:55:03.175Z,984.47
2022-12-29T04:56:03.181Z,984.49
2022-12-29T04:57:03.158Z,984.52
2022-12-29T04:58:03.629Z,984.49
2022-12-29T04:59:03.148Z,984.41
2022-12-29T05:00:03.146Z,984.37
2022-12-29T05:01:03.119Z,984.38
2022-12-29T05:02:03.323Z,984.40
2022-12-29T05:03:03.871Z,984.39
2022-12-29T05:04:03.160Z,984.39
2022-12-29T05:05:03.087Z,984.38
2022-12-29T05:06:03.084Z,984.37
2022-12-29T05:07:03.070Z,984.32
2022-12-29T05:08:03.815Z,984.34
2022-12-29T05:09:03.049Z,984.33
2022-12-29T05:10:03.433Z,984.25
2022-12-29T05:11:03.035Z,984.22
2022-12-29T05:12:03.023Z,984.27
2022-12-29T05:13:03.024Z,984.24
2022-12-29T05:14:03.002Z,984.31
2022-12-29T05:15:02.993Z,984.24
2022-12-29T05:16:03.588Z,984.29
2022-12-29T05:17:02.967Z,984.25
2022-12-29T05:18:03.768Z,984.28
2022-12-29T05:19:02.985Z,984.22
2022-12-29T05:20:03.354Z,984.20
2022-12-29T05:21:02.943Z,984.19
2022-12-29T05:22:03.300Z,984.16
2022-12-29T05:23:02.914Z,984.13
2022-12-29T05:24:02.919Z,984.17
2022-12-29T05:25:02.890Z,984.17
2022-12-29T05:26:02.891Z,984.12
2022-12-29T05:27:02.870Z,984.11
2022-12-29T05:28:02.877Z,984.17
2022-12-29T05:29:02.851Z,984.16
2022-12-29T05:30:02.844Z,984.17
2022-12-29T05:31:02.881Z,984.19
2022-12-29T05:32:02.825Z,984.23
2022-12-29T05:33:02.816Z,984.20
2022-12-29T05:34:02.807Z,984.25
2022-12-29T05:35:02.816Z,984.15
2022-12-29T05:36:03.176Z,984.23
2022-12-29T05:37:02.774Z,984.22
2022-12-29T05:38:03.632Z,984.23
2022-12-29T05:39:02.752Z,984.28
2022-12-29T05:40:02.764Z,984.23
2022-12-29T05:41:02.733Z,984.21
2022-12-29T05:42:02.738Z,984.24
2022-12-29T05:43:02.713Z,984.24
2022-12-29T05:44:02.711Z,984.24
2022-12-29T05:45:02.692Z,984.27
2022-12-29T05:46:02.694Z,984.25
2022-12-29T05:47:02.708Z,984.27
2022-12-29T05:48:02.688Z,984.41
2022-12-29T05:49:02.651Z,984.38
2022-12-29T05:50:03.049Z,984.39
2022-12-29T05:51:02.723Z,984.31
2022-12-29T05:52:02.627Z,984.34
2022-12-29T05:53:02.618Z,984.40
2022-12-29T05:54:02.616Z,984.29
2022-12-29T05:55:03.155Z,984.31
2022-12-29T05:56:02.587Z,984.25
2022-12-29T05:57:02.580Z,984.23
2022-12-29T05:58:02.580Z,984.16
2022-12-29T05:59:02.555Z,984.15
2022-12-29T06:00:02.989Z,984.09
2022-12-29T06:01:02.543Z,984.21
2022-12-29T06:02:02.712Z,984.09
2022-12-29T06:03:02.811Z,984.08
2022-12-29T06:04:02.581Z,984.13
2022-12-29T06:05:02.863Z,984.17
2022-12-29T06:06:02.499Z,984.15
2022-12-29T06:07:02.477Z,984.06
2022-12-29T06:08:02.477Z,984.04
2022-12-29T06:09:02.460Z,984.03
2022-12-29T06:10:02.453Z,984.03
2022-12-29T06:11:02.757Z,984.10
2022-12-29T06:12:02.816Z,984.12
2022-12-29T06:13:02.422Z,984.19
2022-12-29T06:14:02.415Z,984.15
2022-12-29T06:15:02.428Z,984.21
2022-12-29T06:16:02.472Z,984.19
2022-12-29T06:17:02.827Z,984.15
2022-12-29T06:18:02.396Z,984.11
2022-12-29T06:19:02.371Z,984.17
2022-12-29T06:20:02.355Z,984.10
2022-12-29T06:21:02.351Z,984.23
2022-12-29T06:22:02.873Z,984.15
2022-12-29T06:23:02.332Z,984.16
2022-12-29T06:24:02.679Z,984.10
2022-12-29T06:25:05.120Z,984.27
2022-12-29T06:26:02.299Z,984.29
2022-12-29T06:27:02.296Z,984.37
2022-12-29T06:28:02.282Z,984.28
2022-12-29T06:29:02.263Z,984.23
2022-12-29T06:30:02.278Z,984.24
2022-12-29T06:31:02.245Z,984.30
2022-12-29T06:32:02.314Z,984.28
2022-12-29T06:33:02.632Z,984.29
2022-12-29T06:34:08.092Z,984.10
2022-12-29T06:35:02.210Z,984.25
2022-12-29T06:36:02.203Z,984.31
2022-12-29T06:37:02.190Z,984.39
2022-12-29T06:38:02.170Z,984.35
2022-12-29T06:39:02.710Z,984.38
2022-12-29T06:40:02.150Z,984.43
2022-12-29T06:41:02.136Z,984.46
2022-12-29T06:42:02.136Z,984.48
2022-12-29T06:43:02.149Z,984.39
2022-12-29T06:44:02.117Z,984.38
2022-12-29T06:45:02.106Z,984.27
2022-12-29T06:46:02.600Z,984.31
2022-12-29T06:47:02.086Z,984.28
2022-12-29T06:48:02.079Z,984.31
2022-12-29T06:49:02.067Z,984.32
2022-12-29T06:50:02.094Z,984.46
2022-12-29T06:51:02.046Z,984.41
2022-12-29T06:52:05.100Z,984.45
2022-12-29T06:53:02.082Z,984.41
2022-12-29T06:54:01.972Z,984.36
2022-12-29T06:55:01.956Z,984.33
2022-12-29T06:56:02.340Z,984.32
2022-12-29T06:57:01.941Z,984.17
2022-12-29T06:58:01.923Z,984.25
2022-12-29T06:59:01.912Z,984.22
2022-12-29T07:00:01.901Z,984.26
2022-12-29T07:01:02.503Z,984.32
2022-12-29T07:02:02.051Z,984.26
2022-12-29T07:03:02.085Z,984.22
2022-12-29T07:04:01.875Z,984.25
2022-12-29T07:05:01.851Z,984.32
2022-12-29T07:06:02.225Z,984.30
2022-12-29T07:07:01.838Z,984.28
2022-12-29T07:08:01.845Z,984.32
2022-12-29T07:09:01.806Z,984.37
2022-12-29T07:10:01.884Z,984.38
2022-12-29T07:11:01.788Z,984.39
2022-12-29T07:12:01.788Z,984.32
2022-12-29T07:13:01.773Z,984.25
2022-12-29T07:14:02.603Z,984.16
2022-12-29T07:15:01.763Z,984.27
2022-12-29T07:16:01.742Z,984.34
2022-12-29T07:17:01.864Z,984.31
2022-12-29T07:18:01.741Z,984.36
2022-12-29T07:19:01.718Z,984.32
2022-12-29T07:20:01.748Z,984.30
2022-12-29T07:21:01.698Z,984.29
2022-12-29T07:22:01.737Z,984.30
2022-12-29T07:23:02.117Z,984.40
2022-12-29T07:24:01.674Z,984.36
2022-12-29T07:25:01.708Z,984.31
2022-12-29T07:26:01.652Z,984.27
2022-12-29T07:27:01.636Z,984.27
2022-12-29T07:28:01.643Z,984.32
2022-12-29T07:29:01.611Z,984.38
2022-12-29T07:30:01.604Z,984.42
2022-12-29T07:31:01.598Z,984.43
2022-12-29T07:32:02.059Z,984.44
2022-12-29T07:33:01.598Z,984.43
2022-12-29T07:34:01.559Z,984.42
2022-12-29T07:35:02.501Z,984.49
2022-12-29T07:36:01.541Z,984.47
2022-12-29T07:37:01.539Z,984.48
2022-12-29T07:38:01.543Z,984.45
2022-12-29T07:39:01.552Z,984.46
2022-12-29T07:40:01.599Z,984.48
2022-12-29T07:41:01.490Z,984.55
2022-12-29T07:42:05.180Z,984.51
2022-12-29T07:43:01.468Z,984.45
2022-12-29T07:44:01.472Z,984.53
2022-12-29T07:45:01.464Z,984.39
2022-12-29T07:46:01.451Z,984.47
2022-12-29T07:47:01.510Z,984.45
2022-12-29T07:48:01.427Z,984.44
2022-12-29T07:49:01.416Z,984.43
2022-12-29T07:50:01.399Z,984.42
2022-12-29T07:51:01.397Z,984.40
2022-12-29T07:52:01.378Z,984.49
2022-12-29T07:53:01.371Z,984.47
2022-12-29T07:54:01.369Z,984.44
2022-12-29T07:55:01.871Z,984.39
2022-12-29T07:56:01.339Z,984.41
2022-12-29T07:57:01.354Z,984.38
2022-12-29T07:58:01.320Z,984.39
2022-12-29T07:59:01.305Z,984.35
2022-12-29T08:00:01.301Z,984.42
2022-12-29T08:01:01.335Z,984.42
2022-12-29T08:02:01.369Z,984.42
2022-12-29T08:03:01.288Z,984.37
2022-12-29T08:04:01.310Z,984.27
2022-12-29T08:05:01.249Z,984.30
2022-12-29T08:06:01.237Z,984.34
2022-12-29T08:07:01.629Z,984.26
2022-12-29T08:08:01.220Z,984.31
2022-12-29T08:09:06.060Z,984.32
2022-12-29T08:10:01.217Z,984.28
2022-12-29T08:11:01.186Z,984.33
2022-12-29T08:12:01.184Z,984.35
2022-12-29T08:13:01.194Z,984.44
2022-12-29T08:14:01.171Z,984.43
2022-12-29T08:15:01.153Z,984.45
2022-12-29T08:16:01.251Z,984.41
2022-12-29T08:17:01.128Z,984.41
2022-12-29T08:18:01.954Z,984.45
2022-12-29T08:19:01.111Z,984.44
2022-12-29T08:20:01.095Z,984.44
2022-12-29T08:21:01.089Z,984.45
2022-12-29T08:22:01.079Z,984.51
2022-12-29T08:23:01.481Z,984.50
2022-12-29T08:24:01.111Z,984.46
2022-12-29T08:25:01.054Z,984.44
2022-12-29T08:26:01.042Z,984.47
2022-12-29T08:27:08.367Z,984.51
2022-12-29T08:28:01.694Z,984.52
2022-12-29T08:29:01.001Z,984.56
2022-12-29T08:30:01.001Z,984.52
2022-12-29T08:31:01.193Z,984.54
2022-12-29T08:32:00.984Z,984.57
2022-12-29T08:33:00.964Z,984.65
2022-12-29T08:34:00.969Z,984.67
2022-12-29T08:35:01.781Z,984.66
2022-12-29T08:36:00.940Z,984.60
2022-12-29T08:37:00.930Z,984.66
2022-12-29T08:38:00.926Z,984.68
2022-12-29T08:39:00.904Z,984.73
2022-12-29T08:40:01.347Z,984.80
2022-12-29T08:41:00.902Z,984.81
2022-12-29T08:42:01.489Z,984.78
2022-12-29T08:43:00.879Z,984.69
2022-12-29T08:44:01.291Z,984.77
2022-12-29T08:45:00.855Z,984.81
2022-12-29T08:46:00.878Z,984.80
2022-12-29T08:47:00.831Z,984.83
2022-12-29T08:48:00.823Z,984.88
2022-12-29T08:49:00.823Z,984.91
2022-12-29T08:50:00.804Z,984.92
2022-12-29T08:51:00.800Z,984.91
2022-12-29T08:52:00.781Z,984.96
2022-12-29T08:53:00.775Z,985.02
2022-12-29T08:54:00.761Z,985.08
2022-12-29T08:55:00.764Z,985.16
2022-12-29T08:56:05.046Z,985.13
2022-12-29T08:57:00.737Z,985.14
2022-12-29T08:58:01.369Z,985.11
2022-12-29T08:59:01.070Z,985.10
2022-12-29T09:00:00.719Z,985.11
2022-12-29T09:01:00.693Z,985.11
2022-12-29T09:02:00.798Z,985.10
2022-12-29T09:03:00.883Z,985.09
2022-12-29T09:04:17.625Z,985.10
2022-12-29T09:05:01.559Z,985.15
2022-12-29T09:06:00.638Z,985.20
2022-12-29T09:07:01.105Z,985.25
2022-12-29T09:08:00.623Z,985.22
2022-12-29T09:09:00.620Z,985.21
2022-12-29T09:10:01.342Z,985.33
2022-12-29T09:11:00.606Z,985.28
2022-12-29T09:12:01.017Z,985.41
2022-12-29T09:13:00.819Z,985.34
2022-12-29T09:14:00.562Z,985.36
2022-12-29T09:15:00.563Z,985.36
2022-12-29T09:16:00.622Z,985.28
2022-12-29T09:17:00.547Z,984.91
2022-12-29T09:18:00.565Z,984.58
2022-12-29T09:19:00.526Z,984.87
2022-12-29T09:20:00.496Z,984.78
2022-12-29T09:21:00.501Z,984.91
2022-12-29T09:22:00.491Z,985.05
2022-12-29T09:23:00.823Z,985.17
2022-12-29T09:24:00.462Z,985.34
2022-12-29T09:25:00.461Z,985.42
2022-12-29T09:26:00.439Z,985.38
2022-12-29T09:27:00.452Z,985.31
2022-12-29T09:28:00.421Z,985.32
2022-12-29T09:29:01.128Z,985.22
2022-12-29T09:30:00.406Z,985.25
2022-12-29T09:31:00.443Z,985.29
2022-12-29T09:32:00.866Z,985.32
2022-12-29T09:33:00.373Z,985.30
2022-12-29T09:34:00.945Z,985.31
2022-12-29T09:35:00.354Z,985.34
2022-12-29T09:36:00.337Z,985.33
2022-12-29T09:37:00.332Z,985.31
2022-12-29T09:38:00.327Z,985.27
2022-12-29T09:39:00.322Z,985.19
2022-12-29T09:40:00.301Z,985.26
2022-12-29T09:41:00.296Z,985.27
2022-12-29T09:42:00.651Z,985.29
2022-12-29T09:43:00.272Z,985.33
2022-12-29T09:44:00.269Z,985.33
2022-12-29T09:45:00.250Z,985.34
2022-12-29T09:46:00.256Z,985.37
2022-12-29T09:47:00.354Z,985.36
2022-12-29T09:48:02.115Z,985.34
2022-12-29T09:49:00.222Z,985.35
2022-12-29T09:50:00.198Z,985.36
2022-12-29T09:51:00.191Z,985.37
2022-12-29T09:52:00.185Z,985.41
2022-12-29T09:53:00.171Z,985.41
2022-12-29T09:54:00.169Z,985.36
2022-12-29T09:55:06.303Z,985.38
2022-12-29T09:56:00.154Z,985.39
2022-12-29T09:57:00.739Z,985.35
2022-12-29T09:58:00.152Z,985.30
2022-12-29T09:59:00.126Z,985.28
2022-12-29T10:00:00.133Z,985.26
2022-12-29T10:01:00.180Z,985.29
2022-12-29T10:02:00.278Z,985.30
2022-12-29T10:03:00.188Z,985.29
2022-12-29T10:04:00.077Z,985.32
2022-12-29T10:05:00.079Z,985.30
2022-12-29T10:06:00.043Z,985.34
2022-12-29T10:08:00.039Z,985.31
2022-12-29T10:09:00.016Z,985.33
2022-12-29T10:09:59.998Z,985.33
2022-12-29T10:10:59.996Z,985.30
2022-12-29T10:11:59.983Z,985.33
2022-12-29T10:12:59.980Z,985.32
2022-12-29T10:13:59.965Z,985.26
2022-12-29T10:14:59.956Z,985.21
2022-12-29T10:15:59.992Z,985.20
2022-12-29T10:16:59.940Z,985.15
2022-12-29T10:17:59.921Z,985.20
2022-12-29T10:19:00.347Z,985.16
2022-12-29T10:19:59.908Z,985.17
2022-12-29T10:20:59.906Z,985.16
2022-12-29T10:21:59.886Z,985.15
2022-12-29T10:22:59.895Z,985.14
2022-12-29T10:23:59.865Z,985.14
2022-12-29T10:25:00.390Z,985.16
2022-12-29T10:25:59.851Z,985.20
2022-12-29T10:26:59.843Z,985.18
2022-12-29T10:27:59.834Z,985.27
2022-12-29T10:28:59.825Z,985.30
2022-12-29T10:30:00.681Z,985.31
2022-12-29T10:31:05.124Z,985.34
2022-12-29T10:32:00.338Z,985.36
2022-12-29T10:32:59.785Z,985.40
2022-12-29T10:33:59.775Z,985.36
2022-12-29T10:34:59.764Z,985.38
2022-12-29T10:36:00.500Z,985.37
2022-12-29T10:36:59.747Z,985.36
2022-12-29T10:38:00.193Z,985.33
2022-12-29T10:38:59.726Z,985.34
2022-12-29T10:39:59.715Z,985.34
2022-12-29T10:40:59.710Z,985.35
2022-12-29T10:42:00.161Z,985.36
2022-12-29T10:42:59.683Z,985.38
2022-12-29T10:43:59.681Z,985.34
2022-12-29T10:44:59.677Z,985.36
2022-12-29T10:45:59.706Z,985.38
2022-12-29T10:46:59.646Z,985.39
2022-12-29T10:47:59.629Z,985.35
2022-12-29T10:48:59.645Z,985.31
2022-12-29T10:49:59.620Z,985.25
2022-12-29T10:51:01.977Z,985.28
2022-12-29T10:51:59.592Z,985.29
2022-12-29T10:53:00.131Z,985.27
2022-12-29T10:54:00.084Z,985.27
2022-12-29T10:54:59.570Z,985.31
2022-12-29T10:55:59.570Z,985.23
2022-12-29T10:56:59.565Z,985.21
2022-12-29T10:57:59.539Z,985.21
2022-12-29T10:59:00.211Z,985.16
2022-12-29T10:59:59.517Z,985.11
2022-12-29T11:00:59.571Z,985.14
2022-12-29T11:01:59.749Z,985.13
2022-12-29T11:03:00.121Z,985.16
2022-12-29T11:03:59.472Z,985.17
2022-12-29T11:05:00.333Z,985.19
2022-12-29T11:05:59.456Z,985.18
2022-12-29T11:06:59.456Z,985.19
2022-12-29T11:07:59.436Z,985.13
2022-12-29T11:08:59.442Z,985.18
2022-12-29T11:09:59.421Z,985.21
2022-12-29T11:10:59.437Z,985.18
2022-12-29T11:11:59.398Z,985.21
2022-12-29T11:12:59.409Z,985.19
2022-12-29T11:13:59.384Z,985.11
2022-12-29T11:14:59.786Z,985.23
2022-12-29T11:15:59.434Z,985.13
2022-12-29T11:16:59.383Z,985.15
2022-12-29T11:17:59.341Z,985.14
2022-12-29T11:19:00.186Z,985.14
2022-12-29T11:19:59.331Z,985.14
2022-12-29T11:20:59.316Z,985.16
2022-12-29T11:21:59.305Z,985.17
2022-12-29T11:22:59.303Z,985.15
2022-12-29T11:23:59.289Z,985.09
2022-12-29T11:24:59.276Z,985.09
2022-12-29T11:25:59.263Z,985.12
2022-12-29T11:26:59.508Z,985.14
2022-12-29T11:27:59.248Z,985.13
2022-12-29T11:28:59.239Z,985.16
2022-12-29T11:29:59.233Z,985.12
2022-12-29T11:30:59.214Z,985.19
2022-12-29T11:31:59.287Z,985.21
2022-12-29T11:32:59.249Z,985.18
2022-12-29T11:33:59.184Z,985.26
2022-12-29T11:34:59.191Z,985.24
2022-12-29T11:35:59.171Z,985.25
2022-12-29T11:36:59.678Z,985.29
2022-12-29T11:37:59.156Z,985.29
2022-12-29T11:38:59.146Z,985.31
2022-12-29T11:40:00.054Z,985.34
2022-12-29T11:40:59.128Z,985.36
2022-12-29T11:41:59.129Z,985.42
2022-12-29T11:42:59.119Z,985.37
2022-12-29T11:43:59.098Z,985.43
2022-12-29T11:44:59.095Z,985.41
2022-12-29T11:45:59.154Z,985.41
2022-12-29T11:46:59.450Z,985.46
2022-12-29T11:47:59.676Z,985.51
2022-12-29T11:48:59.999Z,985.48
2022-12-29T11:49:59.033Z,985.48
2022-12-29T11:50:59.084Z,985.50
2022-12-29T11:51:59.024Z,985.47
2022-12-29T11:52:59.032Z,985.53
2022-12-29T11:53:59.006Z,985.55
2022-12-29T11:54:58.995Z,985.58
2022-12-29T11:55:58.985Z,985.59
2022-12-29T11:56:58.982Z,985.58
2022-12-29T11:57:59.576Z,985.56
2022-12-29T11:58:58.968Z,985.52
2022-12-29T11:59:58.947Z,985.56
2022-12-29T12:00:58.947Z,985.63
2022-12-29T12:01:59.029Z,985.56
2022-12-29T12:02:59.431Z,985.50
2022-12-29T12:03:58.983Z,985.56
2022-12-29T12:04:58.909Z,985.55
2022-12-29T12:05:58.895Z,985.49
2022-12-29T12:06:58.898Z,985.47
2022-12-29T12:07:59.296Z,985.50
2022-12-29T12:08:58.881Z,985.56
2022-12-29T12:10:04.969Z,985.59
2022-12-29T12:10:58.873Z,985.59
2022-12-29T12:11:58.841Z,985.57
2022-12-29T12:12:58.841Z,985.55
2022-12-29T12:13:58.843Z,985.61
2022-12-29T12:14:58.824Z,985.64
2022-12-29T12:15:58.844Z,985.65
2022-12-29T12:16:59.431Z,985.57
2022-12-29T12:17:58.798Z,985.60
2022-12-29T12:18:58.785Z,985.63
2022-12-29T12:19:58.771Z,985.62
2022-12-29T12:20:58.772Z,985.62
2022-12-29T12:21:58.755Z,985.69
2022-12-29T12:22:58.762Z,985.73
2022-12-29T12:23:58.761Z,985.72
2022-12-29T12:24:58.739Z,985.77
2022-12-29T12:25:59.223Z,985.67
2022-12-29T12:26:58.723Z,985.63
2022-12-29T12:27:58.709Z,985.69
2022-12-29T12:28:58.696Z,985.63